sensor_id;sensor_type;location;lat;lon;timestamp;temperature;humidity
52034;DHT22;38045;52.988;6.536;2023-03-03T00:00:45;1.90;99.90
52034;DHT22;38045;52.988;6.536;2023-03-03T00:03:14;1.90;99.90
52034;DHT22;38045;52.988;6.536;2023-03-03T00:05:40;2.00;99.90
52034;DHT22;38045;52.988;6.536;2023-03-03T00:08:07;2.00;99.90
52034;DHT22;38045;52.988;6.536;2023-03-03T00:10:33;2.00;99.90
52034;DHT22;38045;52.988;6.536;2023-03-03T00:12:59;1.90;99.90
52034;DHT22;38045;52.988;6.536;2023-03-03T00:15:25;2.00;99.90
52034;DHT22;38045;52.988;6.536;2023-03-03T00:17:52;2.00;99.90
52034;DHT22;38045;52.988;6.536;2023-03-03T00:20:32;2.00;99.90
52034;DHT22;38045;52.988;6.536;2023-03-03T00:23:29;2.00;99.90
52034;DHT22;38045;52.988;6.536;2023-03-03T00:25:56;2.00;99.90
52034;DHT22;38045;52.988;6.536;2023-03-03T00:28:28;2.10;99.90
52034;DHT22;38045;52.988;6.536;2023-03-03T00:30:56;2.10;99.90
52034;DHT22;38045;52.988;6.536;2023-03-03T00:33:31;2.10;99.90
52034;DHT22;38045;52.988;6.536;2023-03-03T00:38:53;2.20;99.90
52034;DHT22;38045;52.988;6.536;2023-03-03T00:41:24;2.20;99.90
52034;DHT22;38045;52.988;6.536;2023-03-03T00:43:51;2.20;99.90
52034;DHT22;38045;52.988;6.536;2023-03-03T00:46:20;2.20;99.90
52034;DHT22;38045;52.988;6.536;2023-03-03T00:48:47;2.20;99.90
52034;DHT22;38045;52.988;6.536;2023-03-03T00:51:25;2.20;99.90
52034;DHT22;38045;52.988;6.536;2023-03-03T00:53:51;2.30;99.90
52034;DHT22;38045;52.988;6.536;2023-03-03T00:56:16;2.30;99.90
52034;DHT22;38045;52.988;6.536;2023-03-03T00:58:42;2.30;99.90
52034;DHT22;38045;52.988;6.536;2023-03-03T01:01:10;2.30;99.90
52034;DHT22;38045;52.988;6.536;2023-03-03T01:03:35;2.30;99.90
52034;DHT22;38045;52.988;6.536;2023-03-03T01:06:01;2.30;99.90
52034;DHT22;38045;52.988;6.536;2023-03-03T01:08:27;2.40;99.90
52034;DHT22;38045;52.988;6.536;2023-03-03T01:10:59;2.30;99.90
52034;DHT22;38045;52.988;6.536;2023-03-03T01:13:30;2.30;99.90
52034;DHT22;38045;52.988;6.536;2023-03-03T01:15:57;2.30;99.90
52034;DHT22;38045;52.988;6.536;2023-03-03T01:18:23;2.30;99.90
52034;DHT22;38045;52.988;6.536;2023-03-03T01:20:49;2.20;99.90
52034;DHT22;38045;52.988;6.536;2023-03-03T01:23:14;2.20;99.90
52034;DHT22;38045;52.988;6.536;2023-03-03T01:25:40;2.20;99.90
52034;DHT22;38045;52.988;6.536;2023-03-03T01:28:06;2.20;99.90
52034;DHT22;38045;52.988;6.536;2023-03-03T01:30:31;2.20;99.90
52034;DHT22;38045;52.988;6.536;2023-03-03T01:32:57;2.20;99.90
52034;DHT22;38045;52.988;6.536;2023-03-03T01:35:23;2.20;99.90
52034;DHT22;38045;52.988;6.536;2023-03-03T01:37:49;2.30;99.90
52034;DHT22;38045;52.988;6.536;2023-03-03T01:40:32;2.30;99.90
52034;DHT22;38045;52.988;6.536;2023-03-03T01:42:59;2.30;99.90
52034;DHT22;38045;52.988;6.536;2023-03-03T01:45:28;2.30;99.90
52034;DHT22;38045;52.988;6.536;2023-03-03T01:47:58;2.30;99.90
52034;DHT22;38045;52.988;6.536;2023-03-03T01:50:36;2.30;99.90
52034;DHT22;38045;52.988;6.536;2023-03-03T01:53:05;2.40;99.90
52034;DHT22;38045;52.988;6.536;2023-03-03T01:55:36;2.30;99.90
52034;DHT22;38045;52.988;6.536;2023-03-03T01:58:05;2.30;99.90
52034;DHT22;38045;52.988;6.536;2023-03-03T02:00:34;2.30;99.90
52034;DHT22;38045;52.988;6.536;2023-03-03T02:03:01;2.30;99.90
52034;DHT22;38045;52.988;6.536;2023-03-03T02:05:27;2.30;99.90
52034;DHT22;38045;52.988;6.536;2023-03-03T02:07:53;2.30;99.90
52034;DHT22;38045;52.988;6.536;2023-03-03T02:10:20;2.20;99.90
52034;DHT22;38045;52.988;6.536;2023-03-03T02:12:54;2.20;99.90
52034;DHT22;38045;52.988;6.536;2023-03-03T02:15:31;2.20;99.90
52034;DHT22;38045;52.988;6.536;2023-03-03T02:18:18;2.20;99.90
52034;DHT22;38045;52.988;6.536;2023-03-03T02:23:44;2.10;99.90
52034;DHT22;38045;52.988;6.536;2023-03-03T02:26:15;2.10;99.90
52034;DHT22;38045;52.988;6.536;2023-03-03T02:28:42;2.10;99.90
52034;DHT22;38045;52.988;6.536;2023-03-03T02:31:11;2.10;99.90
52034;DHT22;38045;52.988;6.536;2023-03-03T02:33:39;2.00;99.90
52034;DHT22;38045;52.988;6.536;2023-03-03T02:36:05;2.00;99.90
52034;DHT22;38045;52.988;6.536;2023-03-03T02:46:21;1.80;99.90
52034;DHT22;38045;52.988;6.536;2023-03-03T02:48:47;1.90;99.90
52034;DHT22;38045;52.988;6.536;2023-03-03T02:51:13;1.80;99.90
52034;DHT22;38045;52.988;6.536;2023-03-03T02:53:39;1.90;99.90
52034;DHT22;38045;52.988;6.536;2023-03-03T02:56:05;1.90;99.90
52034;DHT22;38045;52.988;6.536;2023-03-03T02:58:31;1.90;99.90
52034;DHT22;38045;52.988;6.536;2023-03-03T03:00:57;1.90;99.90
52034;DHT22;38045;52.988;6.536;2023-03-03T03:03:23;2.00;99.90
52034;DHT22;38045;52.988;6.536;2023-03-03T03:05:48;2.00;99.90
52034;DHT22;38045;52.988;6.536;2023-03-03T03:08:14;2.00;99.90
52034;DHT22;38045;52.988;6.536;2023-03-03T03:10:39;1.90;99.90
52034;DHT22;38045;52.988;6.536;2023-03-03T03:13:05;1.90;99.90
52034;DHT22;38045;52.988;6.536;2023-03-03T03:15:31;2.00;99.90
52034;DHT22;38045;52.988;6.536;2023-03-03T03:17:56;1.90;99.90
52034;DHT22;38045;52.988;6.536;2023-03-03T03:20:22;2.00;99.90
52034;DHT22;38045;52.988;6.536;2023-03-03T03:22:47;2.00;99.90
52034;DHT22;38045;52.988;6.536;2023-03-03T03:25:13;2.00;99.90
52034;DHT22;38045;52.988;6.536;2023-03-03T03:27:38;1.90;99.90
52034;DHT22;38045;52.988;6.536;2023-03-03T03:30:04;1.90;99.90
52034;DHT22;38045;52.988;6.536;2023-03-03T03:32:30;1.90;99.90
52034;DHT22;38045;52.988;6.536;2023-03-03T03:34:56;1.80;99.90
52034;DHT22;38045;52.988;6.536;2023-03-03T03:37:21;1.80;99.90
52034;DHT22;38045;52.988;6.536;2023-03-03T03:39:47;1.80;99.90
52034;DHT22;38045;52.988;6.536;2023-03-03T03:42:12;1.80;99.90
52034;DHT22;38045;52.988;6.536;2023-03-03T03:44:38;1.80;99.90
52034;DHT22;38045;52.988;6.536;2023-03-03T03:47:04;1.80;99.90
52034;DHT22;38045;52.988;6.536;2023-03-03T03:49:29;1.90;99.90
52034;DHT22;38045;52.988;6.536;2023-03-03T03:51:55;1.80;99.90
52034;DHT22;38045;52.988;6.536;2023-03-03T03:54:20;1.80;99.90
52034;DHT22;38045;52.988;6.536;2023-03-03T03:56:46;1.70;99.90
52034;DHT22;38045;52.988;6.536;2023-03-03T03:59:12;1.70;99.90
52034;DHT22;38045;52.988;6.536;2023-03-03T04:01:37;1.70;99.90
52034;DHT22;38045;52.988;6.536;2023-03-03T04:04:03;1.70;99.90
52034;DHT22;38045;52.988;6.536;2023-03-03T04:06:29;1.70;99.90
52034;DHT22;38045;52.988;6.536;2023-03-03T04:08:55;1.70;99.90
52034;DHT22;38045;52.988;6.536;2023-03-03T04:11:21;1.70;99.90
52034;DHT22;38045;52.988;6.536;2023-03-03T04:13:47;1.70;99.90
52034;DHT22;38045;52.988;6.536;2023-03-03T04:16:12;1.70;99.90
52034;DHT22;38045;52.988;6.536;2023-03-03T04:18:38;1.60;99.90
52034;DHT22;38045;52.988;6.536;2023-03-03T04:21:04;1.60;99.90
52034;DHT22;38045;52.988;6.536;2023-03-03T04:23:30;1.60;99.90
52034;DHT22;38045;52.988;6.536;2023-03-03T04:25:55;1.60;99.90
52034;DHT22;38045;52.988;6.536;2023-03-03T04:28:21;1.60;99.90
52034;DHT22;38045;52.988;6.536;2023-03-03T04:30:49;1.70;99.90
52034;DHT22;38045;52.988;6.536;2023-03-03T04:33:15;1.70;99.90
52034;DHT22;38045;52.988;6.536;2023-03-03T04:35:40;1.70;99.90
52034;DHT22;38045;52.988;6.536;2023-03-03T04:38:06;1.70;99.90
52034;DHT22;38045;52.988;6.536;2023-03-03T04:40:31;1.70;99.90
52034;DHT22;38045;52.988;6.536;2023-03-03T04:42:57;1.70;99.90
52034;DHT22;38045;52.988;6.536;2023-03-03T04:45:23;1.70;99.90
52034;DHT22;38045;52.988;6.536;2023-03-03T04:47:48;1.70;99.90
52034;DHT22;38045;52.988;6.536;2023-03-03T04:50:14;1.60;99.90
52034;DHT22;38045;52.988;6.536;2023-03-03T04:52:39;1.50;99.90
52034;DHT22;38045;52.988;6.536;2023-03-03T04:55:05;1.50;99.90
52034;DHT22;38045;52.988;6.536;2023-03-03T04:57:31;1.40;99.90
52034;DHT22;38045;52.988;6.536;2023-03-03T04:59:57;1.40;99.90
52034;DHT22;38045;52.988;6.536;2023-03-03T05:02:22;1.40;99.90
52034;DHT22;38045;52.988;6.536;2023-03-03T05:04:48;1.40;99.90
52034;DHT22;38045;52.988;6.536;2023-03-03T05:07:13;1.40;99.90
52034;DHT22;38045;52.988;6.536;2023-03-03T05:09:39;1.30;99.90
52034;DHT22;38045;52.988;6.536;2023-03-03T05:12:05;1.20;99.90
52034;DHT22;38045;52.988;6.536;2023-03-03T05:14:30;1.10;99.90
52034;DHT22;38045;52.988;6.536;2023-03-03T05:16:56;1.10;99.90
52034;DHT22;38045;52.988;6.536;2023-03-03T05:19:21;1.10;99.90
52034;DHT22;38045;52.988;6.536;2023-03-03T05:21:48;1.10;99.90
52034;DHT22;38045;52.988;6.536;2023-03-03T05:24:14;1.00;99.90
52034;DHT22;38045;52.988;6.536;2023-03-03T05:26:40;1.00;99.90
52034;DHT22;38045;52.988;6.536;2023-03-03T05:29:06;1.00;99.90
52034;DHT22;38045;52.988;6.536;2023-03-03T05:31:32;1.00;99.90
52034;DHT22;38045;52.988;6.536;2023-03-03T05:33:57;1.00;99.90
52034;DHT22;38045;52.988;6.536;2023-03-03T05:36:23;0.90;99.90
52034;DHT22;38045;52.988;6.536;2023-03-03T05:38:49;0.80;99.90
52034;DHT22;38045;52.988;6.536;2023-03-03T05:41:14;0.70;99.90
52034;DHT22;38045;52.988;6.536;2023-03-03T05:43:40;0.90;99.90
52034;DHT22;38045;52.988;6.536;2023-03-03T05:46:06;0.60;99.90
52034;DHT22;38045;52.988;6.536;2023-03-03T05:48:32;0.60;99.90
52034;DHT22;38045;52.988;6.536;2023-03-03T05:50:58;0.50;99.90
52034;DHT22;38045;52.988;6.536;2023-03-03T05:53:27;0.50;99.90
52034;DHT22;38045;52.988;6.536;2023-03-03T05:55:53;0.40;99.90
52034;DHT22;38045;52.988;6.536;2023-03-03T05:58:19;0.40;99.90
52034;DHT22;38045;52.988;6.536;2023-03-03T06:00:45;0.30;99.90
52034;DHT22;38045;52.988;6.536;2023-03-03T06:03:11;0.30;99.90
52034;DHT22;38045;52.988;6.536;2023-03-03T06:05:36;0.30;99.90
52034;DHT22;38045;52.988;6.536;2023-03-03T06:08:02;0.20;99.90
52034;DHT22;38045;52.988;6.536;2023-03-03T06:10:28;0.30;99.90
52034;DHT22;38045;52.988;6.536;2023-03-03T06:12:53;0.30;99.90
52034;DHT22;38045;52.988;6.536;2023-03-03T06:15:21;0.30;99.90
52034;DHT22;38045;52.988;6.536;2023-03-03T06:17:46;0.30;99.90
52034;DHT22;38045;52.988;6.536;2023-03-03T06:20:12;0.30;99.90
52034;DHT22;38045;52.988;6.536;2023-03-03T06:22:38;0.20;99.90
52034;DHT22;38045;52.988;6.536;2023-03-03T06:25:04;0.10;99.90
52034;DHT22;38045;52.988;6.536;2023-03-03T06:27:29;0.10;99.90
52034;DHT22;38045;52.988;6.536;2023-03-03T06:29:55;0.10;99.90
52034;DHT22;38045;52.988;6.536;2023-03-03T06:32:21;0.00;99.90
52034;DHT22;38045;52.988;6.536;2023-03-03T06:34:46;-0.10;99.90
52034;DHT22;38045;52.988;6.536;2023-03-03T06:37:12;-0.20;99.90
52034;DHT22;38045;52.988;6.536;2023-03-03T06:39:37;-0.20;99.90
52034;DHT22;38045;52.988;6.536;2023-03-03T06:42:03;-0.30;99.90
52034;DHT22;38045;52.988;6.536;2023-03-03T06:44:29;-0.30;99.90
52034;DHT22;38045;52.988;6.536;2023-03-03T06:46:54;-0.40;99.90
52034;DHT22;38045;52.988;6.536;2023-03-03T06:49:22;-0.40;99.90
52034;DHT22;38045;52.988;6.536;2023-03-03T06:51:47;-0.40;99.90
52034;DHT22;38045;52.988;6.536;2023-03-03T06:54:42;-0.40;99.90
52034;DHT22;38045;52.988;6.536;2023-03-03T06:57:24;-0.30;99.90
52034;DHT22;38045;52.988;6.536;2023-03-03T06:59:52;-0.30;99.90
52034;DHT22;38045;52.988;6.536;2023-03-03T07:02:20;-0.30;99.90
52034;DHT22;38045;52.988;6.536;2023-03-03T07:04:46;-0.40;99.90
52034;DHT22;38045;52.988;6.536;2023-03-03T07:07:23;-0.40;99.90
52034;DHT22;38045;52.988;6.536;2023-03-03T07:09:52;-0.40;99.90
52034;DHT22;38045;52.988;6.536;2023-03-03T07:12:24;-0.40;99.90
52034;DHT22;38045;52.988;6.536;2023-03-03T07:17:43;-0.30;99.90
52034;DHT22;38045;52.988;6.536;2023-03-03T07:20:21;-0.30;99.90
52034;DHT22;38045;52.988;6.536;2023-03-03T07:22:48;-0.20;99.90
52034;DHT22;38045;52.988;6.536;2023-03-03T07:25:33;-0.30;99.90
52034;DHT22;38045;52.988;6.536;2023-03-03T07:28:23;-0.20;99.90
52034;DHT22;38045;52.988;6.536;2023-03-03T07:30:54;-0.20;99.90
52034;DHT22;38045;52.988;6.536;2023-03-03T07:33:28;-0.10;99.90
52034;DHT22;38045;52.988;6.536;2023-03-03T07:35:59;0.00;99.90
52034;DHT22;38045;52.988;6.536;2023-03-03T07:40:57;0.10;99.90
52034;DHT22;38045;52.988;6.536;2023-03-03T07:46:40;0.20;99.90
52034;DHT22;38045;52.988;6.536;2023-03-03T07:49:36;0.30;99.90
52034;DHT22;38045;52.988;6.536;2023-03-03T07:54:46;0.30;99.90
52034;DHT22;38045;52.988;6.536;2023-03-03T07:57:24;0.50;99.90
52034;DHT22;38045;52.988;6.536;2023-03-03T08:02:36;0.70;99.90
52034;DHT22;38045;52.988;6.536;2023-03-03T08:07:49;0.60;99.90
52034;DHT22;38045;52.988;6.536;2023-03-03T08:10:34;0.70;99.90
52034;DHT22;38045;52.988;6.536;2023-03-03T08:13:08;0.70;99.90
52034;DHT22;38045;52.988;6.536;2023-03-03T08:15:39;0.80;99.90
52034;DHT22;38045;52.988;6.536;2023-03-03T08:18:18;0.80;99.90
52034;DHT22;38045;52.988;6.536;2023-03-03T08:20:50;0.80;99.90
52034;DHT22;38045;52.988;6.536;2023-03-03T08:23:17;0.90;99.90
52034;DHT22;38045;52.988;6.536;2023-03-03T08:25:44;0.90;99.90
52034;DHT22;38045;52.988;6.536;2023-03-03T08:28:10;1.00;99.90
52034;DHT22;38045;52.988;6.536;2023-03-03T08:30:36;1.10;99.90
52034;DHT22;38045;52.988;6.536;2023-03-03T08:33:01;1.20;99.90
52034;DHT22;38045;52.988;6.536;2023-03-03T08:35:27;1.20;99.90
52034;DHT22;38045;52.988;6.536;2023-03-03T08:37:53;1.20;99.90
52034;DHT22;38045;52.988;6.536;2023-03-03T08:40:18;1.10;99.90
52034;DHT22;38045;52.988;6.536;2023-03-03T08:42:44;1.10;99.90
52034;DHT22;38045;52.988;6.536;2023-03-03T08:45:10;1.20;99.90
52034;DHT22;38045;52.988;6.536;2023-03-03T08:47:35;1.20;99.90
52034;DHT22;38045;52.988;6.536;2023-03-03T08:50:01;1.20;99.90
52034;DHT22;38045;52.988;6.536;2023-03-03T08:52:26;1.20;99.90
52034;DHT22;38045;52.988;6.536;2023-03-03T08:54:52;1.30;99.90
52034;DHT22;38045;52.988;6.536;2023-03-03T08:57:18;1.40;99.90
52034;DHT22;38045;52.988;6.536;2023-03-03T08:59:44;1.50;99.90
52034;DHT22;38045;52.988;6.536;2023-03-03T09:02:12;1.50;99.90
52034;DHT22;38045;52.988;6.536;2023-03-03T09:04:38;1.60;99.90
52034;DHT22;38045;52.988;6.536;2023-03-03T09:07:03;1.60;99.90
52034;DHT22;38045;52.988;6.536;2023-03-03T09:09:29;1.70;99.90
52034;DHT22;38045;52.988;6.536;2023-03-03T09:11:59;1.70;99.90
52034;DHT22;38045;52.988;6.536;2023-03-03T09:14:28;1.80;99.90
52034;DHT22;38045;52.988;6.536;2023-03-03T09:16:55;1.80;99.90
52034;DHT22;38045;52.988;6.536;2023-03-03T09:19:28;1.90;99.90
52034;DHT22;38045;52.988;6.536;2023-03-03T09:22:18;2.00;99.90
52034;DHT22;38045;52.988;6.536;2023-03-03T09:24:42;2.00;99.90
52034;DHT22;38045;52.988;6.536;2023-03-03T09:27:28;2.10;99.90
52034;DHT22;38045;52.988;6.536;2023-03-03T09:29:56;2.10;99.90
52034;DHT22;38045;52.988;6.536;2023-03-03T09:32:36;2.10;99.90
52034;DHT22;38045;52.988;6.536;2023-03-03T09:37:51;2.20;99.90
52034;DHT22;38045;52.988;6.536;2023-03-03T09:45:50;2.40;99.90
52034;DHT22;38045;52.988;6.536;2023-03-03T09:48:32;2.40;99.90
52034;DHT22;38045;52.988;6.536;2023-03-03T09:57:04;2.70;99.90
52034;DHT22;38045;52.988;6.536;2023-03-03T09:59:58;2.80;99.90
52034;DHT22;38045;52.988;6.536;2023-03-03T10:21:49;3.50;99.90
52034;DHT22;38045;52.988;6.536;2023-03-03T10:24:26;3.50;99.90
52034;DHT22;38045;52.988;6.536;2023-03-03T10:29:40;3.60;99.90
52034;DHT22;38045;52.988;6.536;2023-03-03T10:35:14;3.80;99.90
52034;DHT22;38045;52.988;6.536;2023-03-03T10:40:44;4.10;99.90
52034;DHT22;38045;52.988;6.536;2023-03-03T10:43:29;4.20;99.90
52034;DHT22;38045;52.988;6.536;2023-03-03T11:05:34;5.30;99.90
52034;DHT22;38045;52.988;6.536;2023-03-03T11:08:14;5.40;99.90
52034;DHT22;38045;52.988;6.536;2023-03-03T11:10:46;5.60;99.90
52034;DHT22;38045;52.988;6.536;2023-03-03T11:13:17;5.70;99.90
52034;DHT22;38045;52.988;6.536;2023-03-03T11:21:43;5.80;99.90
52034;DHT22;38045;52.988;6.536;2023-03-03T11:24:22;5.90;99.90
52034;DHT22;38045;52.988;6.536;2023-03-03T11:30:32;6.30;99.90
52034;DHT22;38045;52.988;6.536;2023-03-03T11:35:48;8.00;99.90
52034;DHT22;38045;52.988;6.536;2023-03-03T11:44:24;9.20;99.90
52034;DHT22;38045;52.988;6.536;2023-03-03T11:47:03;9.30;99.90
52034;DHT22;38045;52.988;6.536;2023-03-03T11:49:51;9.10;99.90
52034;DHT22;38045;52.988;6.536;2023-03-03T12:00:11;7.80;99.90
52034;DHT22;38045;52.988;6.536;2023-03-03T12:02:53;7.60;99.90
52034;DHT22;38045;52.988;6.536;2023-03-03T12:11:32;7.10;99.90
52034;DHT22;38045;52.988;6.536;2023-03-03T12:16:58;7.00;99.90
52034;DHT22;38045;52.988;6.536;2023-03-03T12:30:02;7.20;99.90
52034;DHT22;38045;52.988;6.536;2023-03-03T12:35:38;7.10;99.90
52034;DHT22;38045;52.988;6.536;2023-03-03T12:40:59;7.10;99.90
52034;DHT22;38045;52.988;6.536;2023-03-03T12:43:54;7.10;99.90
52034;DHT22;38045;52.988;6.536;2023-03-03T12:49:06;7.10;99.90
52034;DHT22;38045;52.988;6.536;2023-03-03T12:51:56;7.10;99.90
52034;DHT22;38045;52.988;6.536;2023-03-03T13:03:00;7.90;99.90
52034;DHT22;38045;52.988;6.536;2023-03-03T13:05:41;7.90;99.90
52034;DHT22;38045;52.988;6.536;2023-03-03T13:08:22;7.90;99.90
52034;DHT22;38045;52.988;6.536;2023-03-03T13:11:19;7.90;99.90
52034;DHT22;38045;52.988;6.536;2023-03-03T13:13:58;7.80;99.90
52034;DHT22;38045;52.988;6.536;2023-03-03T13:16:34;7.80;99.90
52034;DHT22;38045;52.988;6.536;2023-03-03T13:19:11;7.90;99.90
52034;DHT22;38045;52.988;6.536;2023-03-03T13:21:48;8.00;99.90
52034;DHT22;38045;52.988;6.536;2023-03-03T13:24:24;8.00;99.90
52034;DHT22;38045;52.988;6.536;2023-03-03T13:27:07;8.10;99.90
52034;DHT22;38045;52.988;6.536;2023-03-03T13:29:54;8.30;99.90
52034;DHT22;38045;52.988;6.536;2023-03-03T13:32:28;8.40;99.90
52034;DHT22;38045;52.988;6.536;2023-03-03T13:35:13;8.40;99.90
52034;DHT22;38045;52.988;6.536;2023-03-03T13:37:46;8.40;99.90
52034;DHT22;38045;52.988;6.536;2023-03-03T13:46:03;8.20;99.90
52034;DHT22;38045;52.988;6.536;2023-03-03T13:51:09;7.90;99.90
52034;DHT22;38045;52.988;6.536;2023-03-03T13:53:53;7.90;99.90
52034;DHT22;38045;52.988;6.536;2023-03-03T14:07:37;8.10;99.90
52034;DHT22;38045;52.988;6.536;2023-03-03T14:10:23;8.60;99.90
52034;DHT22;38045;52.988;6.536;2023-03-03T14:13:06;8.80;99.90
52034;DHT22;38045;52.988;6.536;2023-03-03T14:15:42;8.90;99.90
52034;DHT22;38045;52.988;6.536;2023-03-03T14:20:54;8.40;99.90
52034;DHT22;38045;52.988;6.536;2023-03-03T14:26:11;8.00;99.90
52034;DHT22;38045;52.988;6.536;2023-03-03T14:28:40;8.00;99.90
52034;DHT22;38045;52.988;6.536;2023-03-03T14:31:30;8.00;99.90
52034;DHT22;38045;52.988;6.536;2023-03-03T14:36:32;7.80;99.90
52034;DHT22;38045;52.988;6.536;2023-03-03T14:39:00;8.20;99.90
52034;DHT22;38045;52.988;6.536;2023-03-03T14:41:39;9.80;99.90
52034;DHT22;38045;52.988;6.536;2023-03-03T14:44:22;11.40;99.90
52034;DHT22;38045;52.988;6.536;2023-03-03T14:49:36;11.30;99.90
52034;DHT22;38045;52.988;6.536;2023-03-03T14:52:08;11.80;99.90
52034;DHT22;38045;52.988;6.536;2023-03-03T14:54:41;11.30;99.90
52034;DHT22;38045;52.988;6.536;2023-03-03T14:59:39;9.40;99.90
52034;DHT22;38045;52.988;6.536;2023-03-03T15:04:44;8.40;99.90
52034;DHT22;38045;52.988;6.536;2023-03-03T15:07:34;8.10;99.90
52034;DHT22;38045;52.988;6.536;2023-03-03T15:10:00;7.90;99.90
52034;DHT22;38045;52.988;6.536;2023-03-03T15:17:35;7.60;99.90
52034;DHT22;38045;52.988;6.536;2023-03-03T15:29:51;7.40;99.90
52034;DHT22;38045;52.988;6.536;2023-03-03T15:32:48;7.20;99.90
52034;DHT22;38045;52.988;6.536;2023-03-03T15:37:55;7.10;99.90
52034;DHT22;38045;52.988;6.536;2023-03-03T15:49:00;6.80;99.90
52034;DHT22;38045;52.988;6.536;2023-03-03T15:51:46;6.70;99.90
52034;DHT22;38045;52.988;6.536;2023-03-03T15:57:13;6.70;99.90
52034;DHT22;38045;52.988;6.536;2023-03-03T16:02:21;6.60;99.90
52034;DHT22;38045;52.988;6.536;2023-03-03T16:10:31;6.60;99.90
52034;DHT22;38045;52.988;6.536;2023-03-03T16:27:23;6.50;99.90
52034;DHT22;38045;52.988;6.536;2023-03-03T16:35:38;6.50;99.90
52034;DHT22;38045;52.988;6.536;2023-03-03T16:38:23;6.40;99.90
52034;DHT22;38045;52.988;6.536;2023-03-03T16:40:55;6.40;99.90
52034;DHT22;38045;52.988;6.536;2023-03-03T16:45:50;6.40;99.90
52034;DHT22;38045;52.988;6.536;2023-03-03T16:48:43;6.40;99.90
52034;DHT22;38045;52.988;6.536;2023-03-03T16:56:33;6.40;99.90
52034;DHT22;38045;52.988;6.536;2023-03-03T17:07:42;6.40;99.90
52034;DHT22;38045;52.988;6.536;2023-03-03T17:10:23;6.40;99.90
52034;DHT22;38045;52.988;6.536;2023-03-03T17:15:56;6.40;99.90
52034;DHT22;38045;52.988;6.536;2023-03-03T17:18:49;6.40;99.90
52034;DHT22;38045;52.988;6.536;2023-03-03T17:24:25;6.30;99.90
52034;DHT22;38045;52.988;6.536;2023-03-03T17:27:06;6.30;99.90
52034;DHT22;38045;52.988;6.536;2023-03-03T17:32:57;6.30;99.90
52034;DHT22;38045;52.988;6.536;2023-03-03T17:40:58;6.30;99.90
52034;DHT22;38045;52.988;6.536;2023-03-03T17:43:40;6.30;99.90
52034;DHT22;38045;52.988;6.536;2023-03-03T17:49:30;6.20;99.90
52034;DHT22;38045;52.988;6.536;2023-03-03T17:52:33;6.20;99.90
52034;DHT22;38045;52.988;6.536;2023-03-03T17:55:22;6.20;99.90
52034;DHT22;38045;52.988;6.536;2023-03-03T18:14:54;6.20;99.90
52034;DHT22;38045;52.988;6.536;2023-03-03T18:18:17;6.20;99.90
52034;DHT22;38045;52.988;6.536;2023-03-03T18:20:35;6.20;99.90
52034;DHT22;38045;52.988;6.536;2023-03-03T18:28:23;6.10;99.90
52034;DHT22;38045;52.988;6.536;2023-03-03T18:31:00;6.10;99.90
52034;DHT22;38045;52.988;6.536;2023-03-03T18:38:56;6.10;99.90
52034;DHT22;38045;52.988;6.536;2023-03-03T18:41:29;6.10;99.90
52034;DHT22;38045;52.988;6.536;2023-03-03T18:44:28;6.10;99.90
52034;DHT22;38045;52.988;6.536;2023-03-03T18:46:55;6.10;99.90
52034;DHT22;38045;52.988;6.536;2023-03-03T18:49:55;6.10;99.90
52034;DHT22;38045;52.988;6.536;2023-03-03T18:52:29;6.10;99.90
52034;DHT22;38045;52.988;6.536;2023-03-03T18:58:01;6.10;99.90
52034;DHT22;38045;52.988;6.536;2023-03-03T19:00:53;6.00;99.90
52034;DHT22;38045;52.988;6.536;2023-03-03T19:05:57;6.10;99.90
52034;DHT22;38045;52.988;6.536;2023-03-03T19:08:51;6.00;99.90
52034;DHT22;38045;52.988;6.536;2023-03-03T19:11:53;6.00;99.90
52034;DHT22;38045;52.988;6.536;2023-03-03T19:16:54;6.00;99.90
52034;DHT22;38045;52.988;6.536;2023-03-03T19:19:23;6.00;99.90
52034;DHT22;38045;52.988;6.536;2023-03-03T19:21:51;6.00;99.90
52034;DHT22;38045;52.988;6.536;2023-03-03T19:24:36;6.00;99.90
52034;DHT22;38045;52.988;6.536;2023-03-03T19:29:50;6.00;99.90
52034;DHT22;38045;52.988;6.536;2023-03-03T19:40:55;6.00;99.90
52034;DHT22;38045;52.988;6.536;2023-03-03T19:43:42;6.00;99.90
52034;DHT22;38045;52.988;6.536;2023-03-03T19:46:30;6.00;99.90
52034;DHT22;38045;52.988;6.536;2023-03-03T19:49:23;6.00;99.90
52034;DHT22;38045;52.988;6.536;2023-03-03T19:52:28;6.00;99.90
52034;DHT22;38045;52.988;6.536;2023-03-03T19:56:00;6.00;99.90
52034;DHT22;38045;52.988;6.536;2023-03-03T20:00:51;6.00;99.90
52034;DHT22;38045;52.988;6.536;2023-03-03T20:03:48;6.00;99.90
52034;DHT22;38045;52.988;6.536;2023-03-03T20:06:36;5.90;99.90
52034;DHT22;38045;52.988;6.536;2023-03-03T20:31:28;5.90;99.90
52034;DHT22;38045;52.988;6.536;2023-03-03T20:44:54;5.90;99.90
52034;DHT22;38045;52.988;6.536;2023-03-03T20:52:54;5.90;99.90
52034;DHT22;38045;52.988;6.536;2023-03-03T21:01:15;5.90;99.90
52034;DHT22;38045;52.988;6.536;2023-03-03T21:03:45;5.90;99.90
52034;DHT22;38045;52.988;6.536;2023-03-03T21:06:18;5.90;99.90
52034;DHT22;38045;52.988;6.536;2023-03-03T21:08:55;5.90;99.90
52034;DHT22;38045;52.988;6.536;2023-03-03T21:11:22;5.90;99.90
52034;DHT22;38045;52.988;6.536;2023-03-03T21:13:50;5.90;99.90
52034;DHT22;38045;52.988;6.536;2023-03-03T21:19:04;5.90;99.90
52034;DHT22;38045;52.988;6.536;2023-03-03T21:21:34;5.90;99.90
52034;DHT22;38045;52.988;6.536;2023-03-03T21:24:00;5.90;99.90
52034;DHT22;38045;52.988;6.536;2023-03-03T21:26:45;5.90;99.90
52034;DHT22;38045;52.988;6.536;2023-03-03T21:29:16;5.90;99.90
52034;DHT22;38045;52.988;6.536;2023-03-03T21:31:43;5.90;99.90
52034;DHT22;38045;52.988;6.536;2023-03-03T21:36:49;5.90;99.90
52034;DHT22;38045;52.988;6.536;2023-03-03T21:39:30;5.90;99.90
52034;DHT22;38045;52.988;6.536;2023-03-03T21:42:16;5.90;99.90
52034;DHT22;38045;52.988;6.536;2023-03-03T21:44:49;5.90;99.90
52034;DHT22;38045;52.988;6.536;2023-03-03T21:47:17;5.90;99.90
52034;DHT22;38045;52.988;6.536;2023-03-03T21:49:45;5.90;99.90
52034;DHT22;38045;52.988;6.536;2023-03-03T21:52:12;5.90;99.90
52034;DHT22;38045;52.988;6.536;2023-03-03T21:54:39;5.90;99.90
52034;DHT22;38045;52.988;6.536;2023-03-03T21:57:04;5.90;99.90
52034;DHT22;38045;52.988;6.536;2023-03-03T21:59:30;5.90;99.90
52034;DHT22;38045;52.988;6.536;2023-03-03T22:01:56;5.90;99.90
52034;DHT22;38045;52.988;6.536;2023-03-03T22:04:21;5.90;99.90
52034;DHT22;38045;52.988;6.536;2023-03-03T22:06:47;5.90;99.90
52034;DHT22;38045;52.988;6.536;2023-03-03T22:09:13;5.90;99.90
52034;DHT22;38045;52.988;6.536;2023-03-03T22:11:39;5.90;99.90
52034;DHT22;38045;52.988;6.536;2023-03-03T22:14:05;5.90;99.90
52034;DHT22;38045;52.988;6.536;2023-03-03T22:16:31;5.90;99.90
52034;DHT22;38045;52.988;6.536;2023-03-03T22:18:57;5.90;99.90
52034;DHT22;38045;52.988;6.536;2023-03-03T22:21:23;5.90;99.90
52034;DHT22;38045;52.988;6.536;2023-03-03T22:23:48;5.90;99.90
52034;DHT22;38045;52.988;6.536;2023-03-03T22:26:14;5.90;99.90
52034;DHT22;38045;52.988;6.536;2023-03-03T22:28:39;5.90;99.90
52034;DHT22;38045;52.988;6.536;2023-03-03T22:31:05;5.90;99.90
52034;DHT22;38045;52.988;6.536;2023-03-03T22:33:31;5.90;99.90